sensor_id;sensor_type;location;lat;lon;timestamp;P1;durP1;ratioP1;P2;durP2;ratioP2
23632;SDS011;11993;48.748;9.166;2022-12-18T00:01:04;78.70;;;40.53;;
23632;SDS011;11993;48.748;9.166;2022-12-18T00:03:38;74.20;;;37.17;;
23632;SDS011;11993;48.748;9.166;2022-12-18T00:06:03;78.68;;;38.75;;
23632;SDS011;11993;48.748;9.166;2022-12-18T00:08:29;79.25;;;37.95;;
23632;SDS011;11993;48.748;9.166;2022-12-18T00:10:55;74.63;;;35.78;;
23632;SDS011;11993;48.748;9.166;2022-12-18T00:13:27;78.18;;;38.95;;
23632;SDS011;11993;48.748;9.166;2022-12-18T00:15:53;77.00;;;37.63;;
23632;SDS011;11993;48.748;9.166;2022-12-18T00:18:18;83.82;;;39.50;;
23632;SDS011;11993;48.748;9.166;2022-12-18T00:20:44;78.72;;;38.65;;
23632;SDS011;11993;48.748;9.166;2022-12-18T00:23:09;77.05;;;37.35;;
23632;SDS011;11993;48.748;9.166;2022-12-18T00:25:35;74.68;;;37.92;;
23632;SDS011;11993;48.748;9.166;2022-12-18T00:28:02;77.65;;;38.22;;
23632;SDS011;11993;48.748;9.166;2022-12-18T00:30:28;78.97;;;38.42;;
23632;SDS011;11993;48.748;9.166;2022-12-18T00:32:54;78.28;;;38.95;;
23632;SDS011;11993;48.748;9.166;2022-12-18T00:35:20;79.68;;;38.47;;
23632;SDS011;11993;48.748;9.166;2022-12-18T00:37:46;81.13;;;39.28;;
23632;SDS011;11993;48.748;9.166;2022-12-18T00:40:11;81.43;;;39.88;;
23632;SDS011;11993;48.748;9.166;2022-12-18T00:42:37;81.05;;;40.15;;
23632;SDS011;11993;48.748;9.166;2022-12-18T00:45:21;77.88;;;37.22;;
23632;SDS011;11993;48.748;9.166;2022-12-18T00:47:51;74.18;;;36.45;;
23632;SDS011;11993;48.748;9.166;2022-12-18T00:50:17;71.97;;;35.25;;
23632;SDS011;11993;48.748;9.166;2022-12-18T00:52:43;82.85;;;36.42;;
23632;SDS011;11993;48.748;9.166;2022-12-18T00:55:09;79.43;;;39.97;;
23632;SDS011;11993;48.748;9.166;2022-12-18T00:57:34;85.05;;;39.80;;
23632;SDS011;11993;48.748;9.166;2022-12-18T01:00:00;79.68;;;37.55;;
23632;SDS011;11993;48.748;9.166;2022-12-18T01:02:26;82.25;;;40.55;;
23632;SDS011;11993;48.748;9.166;2022-12-18T01:04:51;80.47;;;36.03;;
23632;SDS011;11993;48.748;9.166;2022-12-18T01:07:17;79.85;;;37.63;;
23632;SDS011;11993;48.748;9.166;2022-12-18T01:09:42;83.00;;;38.05;;
23632;SDS011;11993;48.748;9.166;2022-12-18T01:12:08;84.72;;;39.13;;
23632;SDS011;11993;48.748;9.166;2022-12-18T01:14:33;68.78;;;33.75;;
23632;SDS011;11993;48.748;9.166;2022-12-18T01:16:59;78.15;;;38.25;;
23632;SDS011;11993;48.748;9.166;2022-12-18T01:19:27;76.97;;;36.70;;
23632;SDS011;11993;48.748;9.166;2022-12-18T01:21:53;78.13;;;38.42;;
23632;SDS011;11993;48.748;9.166;2022-12-18T01:24:18;80.90;;;38.60;;
23632;SDS011;11993;48.748;9.166;2022-12-18T01:26:44;76.03;;;37.53;;
23632;SDS011;11993;48.748;9.166;2022-12-18T01:29:10;77.30;;;36.47;;
23632;SDS011;11993;48.748;9.166;2022-12-18T01:31:36;78.82;;;36.95;;
23632;SDS011;11993;48.748;9.166;2022-12-18T01:34:01;72.60;;;35.65;;
23632;SDS011;11993;48.748;9.166;2022-12-18T01:36:30;68.53;;;33.65;;
23632;SDS011;11993;48.748;9.166;2022-12-18T01:38:58;74.22;;;35.80;;
23632;SDS011;11993;48.748;9.166;2022-12-18T01:41:26;69.80;;;34.53;;
23632;SDS011;11993;48.748;9.166;2022-12-18T01:47:33;62.95;;;33.08;;
23632;SDS011;11993;48.748;9.166;2022-12-18T01:50:16;77.00;;;36.03;;
23632;SDS011;11993;48.748;9.166;2022-12-18T01:52:59;65.90;;;34.50;;
23632;SDS011;11993;48.748;9.166;2022-12-18T01:55:45;67.40;;;33.00;;
23632;SDS011;11993;48.748;9.166;2022-12-18T01:58:13;71.20;;;34.35;;
23632;SDS011;11993;48.748;9.166;2022-12-18T02:00:39;63.95;;;33.55;;
23632;SDS011;11993;48.748;9.166;2022-12-18T02:03:05;68.22;;;33.38;;
23632;SDS011;11993;48.748;9.166;2022-12-18T02:05:36;68.18;;;31.42;;
23632;SDS011;11993;48.748;9.166;2022-12-18T02:08:22;71.05;;;32.92;;
23632;SDS011;11993;48.748;9.166;2022-12-18T02:14:00;63.22;;;31.38;;
23632;SDS011;11993;48.748;9.166;2022-12-18T02:19:13;69.85;;;32.50;;
23632;SDS011;11993;48.748;9.166;2022-12-18T02:21:58;60.70;;;28.60;;
23632;SDS011;11993;48.748;9.166;2022-12-18T02:24:51;64.80;;;31.35;;
23632;SDS011;11993;48.748;9.166;2022-12-18T02:27:19;60.85;;;28.92;;
23632;SDS011;11993;48.748;9.166;2022-12-18T02:29:50;60.70;;;29.90;;
23632;SDS011;11993;48.748;9.166;2022-12-18T02:32:19;61.15;;;30.65;;
23632;SDS011;11993;48.748;9.166;2022-12-18T02:34:49;59.38;;;28.33;;
23632;SDS011;11993;48.748;9.166;2022-12-18T02:37:17;69.38;;;31.83;;
23632;SDS011;11993;48.748;9.166;2022-12-18T02:39:45;61.53;;;30.45;;
23632;SDS011;11993;48.748;9.166;2022-12-18T02:42:13;61.90;;;29.17;;
23632;SDS011;11993;48.748;9.166;2022-12-18T02:44:46;67.32;;;32.25;;
23632;SDS011;11993;48.748;9.166;2022-12-18T02:47:15;62.15;;;29.50;;
23632;SDS011;11993;48.748;9.166;2022-12-18T02:52:42;60.75;;;31.02;;
23632;SDS011;11993;48.748;9.166;2022-12-18T02:58:11;61.28;;;29.55;;
23632;SDS011;11993;48.748;9.166;2022-12-18T03:06:00;54.42;;;27.02;;
23632;SDS011;11993;48.748;9.166;2022-12-18T03:08:33;54.30;;;27.17;;
23632;SDS011;11993;48.748;9.166;2022-12-18T03:11:08;59.85;;;28.73;;
23632;SDS011;11993;48.748;9.166;2022-12-18T03:13:46;54.17;;;26.95;;
23632;SDS011;11993;48.748;9.166;2022-12-18T03:16:18;51.92;;;26.48;;
23632;SDS011;11993;48.748;9.166;2022-12-18T03:18:58;49.55;;;25.65;;
23632;SDS011;11993;48.748;9.166;2022-12-18T03:21:31;52.17;;;26.50;;
23632;SDS011;11993;48.748;9.166;2022-12-18T03:24:07;60.22;;;26.63;;
23632;SDS011;11993;48.748;9.166;2022-12-18T03:26:34;54.38;;;28.40;;
23632;SDS011;11993;48.748;9.166;2022-12-18T03:29:08;56.42;;;28.58;;
23632;SDS011;11993;48.748;9.166;2022-12-18T03:31:40;48.92;;;25.00;;
23632;SDS011;11993;48.748;9.166;2022-12-18T03:34:14;57.47;;;28.55;;
23632;SDS011;11993;48.748;9.166;2022-12-18T03:36:44;57.05;;;27.92;;
23632;SDS011;11993;48.748;9.166;2022-12-18T03:39:10;57.45;;;27.77;;
23632;SDS011;11993;48.748;9.166;2022-12-18T03:44:26;58.42;;;27.98;;
23632;SDS011;11993;48.748;9.166;2022-12-18T03:47:19;56.72;;;27.80;;
23632;SDS011;11993;48.748;9.166;2022-12-18T03:55:36;60.22;;;28.58;;
23632;SDS011;11993;48.748;9.166;2022-12-18T03:58:03;60.90;;;29.05;;
23632;SDS011;11993;48.748;9.166;2022-12-18T04:00:32;57.35;;;28.08;;
23632;SDS011;11993;48.748;9.166;2022-12-18T04:02:59;59.15;;;29.88;;
23632;SDS011;11993;48.748;9.166;2022-12-18T04:05:26;52.65;;;26.23;;
23632;SDS011;11993;48.748;9.166;2022-12-18T04:07:54;56.45;;;27.00;;
23632;SDS011;11993;48.748;9.166;2022-12-18T04:10:22;52.20;;;27.63;;
23632;SDS011;11993;48.748;9.166;2022-12-18T04:12:47;55.08;;;28.30;;
23632;SDS011;11993;48.748;9.166;2022-12-18T04:15:13;57.65;;;27.95;;
23632;SDS011;11993;48.748;9.166;2022-12-18T04:17:39;56.75;;;27.92;;
23632;SDS011;11993;48.748;9.166;2022-12-18T04:20:12;58.13;;;29.35;;
23632;SDS011;11993;48.748;9.166;2022-12-18T04:22:38;55.08;;;27.10;;
23632;SDS011;11993;48.748;9.166;2022-12-18T04:25:04;58.22;;;28.42;;
23632;SDS011;11993;48.748;9.166;2022-12-18T04:27:29;62.08;;;30.40;;
23632;SDS011;11993;48.748;9.166;2022-12-18T04:29:55;61.78;;;28.80;;
23632;SDS011;11993;48.748;9.166;2022-12-18T04:32:21;65.75;;;29.50;;
23632;SDS011;11993;48.748;9.166;2022-12-18T04:34:46;64.50;;;30.15;;
23632;SDS011;11993;48.748;9.166;2022-12-18T04:37:12;67.15;;;30.85;;
23632;SDS011;11993;48.748;9.166;2022-12-18T04:39:39;60.78;;;28.90;;
23632;SDS011;11993;48.748;9.166;2022-12-18T04:42:04;64.05;;;29.52;;
23632;SDS011;11993;48.748;9.166;2022-12-18T04:44:30;62.83;;;29.70;;
23632;SDS011;11993;48.748;9.166;2022-12-18T04:46:55;75.53;;;32.88;;
23632;SDS011;11993;48.748;9.166;2022-12-18T04:49:21;63.17;;;29.80;;
23632;SDS011;11993;48.748;9.166;2022-12-18T04:51:47;65.07;;;30.90;;
23632;SDS011;11993;48.748;9.166;2022-12-18T04:54:12;66.70;;;31.00;;
23632;SDS011;11993;48.748;9.166;2022-12-18T04:56:38;70.93;;;31.02;;
23632;SDS011;11993;48.748;9.166;2022-12-18T04:59:03;61.90;;;29.42;;
23632;SDS011;11993;48.748;9.166;2022-12-18T05:01:29;66.38;;;30.00;;
23632;SDS011;11993;48.748;9.166;2022-12-18T05:03:55;65.97;;;29.45;;
23632;SDS011;11993;48.748;9.166;2022-12-18T05:06:20;70.28;;;30.58;;
23632;SDS011;11993;48.748;9.166;2022-12-18T05:08:46;67.38;;;30.20;;
23632;SDS011;11993;48.748;9.166;2022-12-18T05:11:12;62.30;;;29.67;;
23632;SDS011;11993;48.748;9.166;2022-12-18T05:13:40;64.95;;;28.75;;
23632;SDS011;11993;48.748;9.166;2022-12-18T05:16:07;63.17;;;29.38;;
23632;SDS011;11993;48.748;9.166;2022-12-18T05:18:33;63.75;;;27.77;;
23632;SDS011;11993;48.748;9.166;2022-12-18T05:20:59;65.60;;;28.48;;
23632;SDS011;11993;48.748;9.166;2022-12-18T05:23:24;64.63;;;27.10;;
23632;SDS011;11993;48.748;9.166;2022-12-18T05:25:51;67.90;;;27.83;;
23632;SDS011;11993;48.748;9.166;2022-12-18T05:28:17;68.28;;;28.83;;
23632;SDS011;11993;48.748;9.166;2022-12-18T05:30:42;62.63;;;27.60;;
23632;SDS011;11993;48.748;9.166;2022-12-18T05:33:17;61.65;;;26.40;;
23632;SDS011;11993;48.748;9.166;2022-12-18T05:35:43;59.78;;;26.80;;
23632;SDS011;11993;48.748;9.166;2022-12-18T05:38:09;52.67;;;26.10;;
23632;SDS011;11993;48.748;9.166;2022-12-18T05:40:34;50.75;;;25.25;;
23632;SDS011;11993;48.748;9.166;2022-12-18T05:43:04;53.78;;;26.33;;
23632;SDS011;11993;48.748;9.166;2022-12-18T05:45:30;55.35;;;24.98;;
23632;SDS011;11993;48.748;9.166;2022-12-18T05:47:55;58.67;;;27.70;;
23632;SDS011;11993;48.748;9.166;2022-12-18T05:50:21;54.83;;;25.23;;
23632;SDS011;11993;48.748;9.166;2022-12-18T05:52:46;52.55;;;25.30;;
23632;SDS011;11993;48.748;9.166;2022-12-18T05:55:12;60.50;;;26.42;;
23632;SDS011;11993;48.748;9.166;2022-12-18T05:57:37;53.65;;;25.35;;
23632;SDS011;11993;48.748;9.166;2022-12-18T06:00:03;52.35;;;25.48;;
23632;SDS011;11993;48.748;9.166;2022-12-18T06:02:29;48.97;;;25.58;;
23632;SDS011;11993;48.748;9.166;2022-12-18T06:04:54;52.63;;;25.42;;
23632;SDS011;11993;48.748;9.166;2022-12-18T06:07:20;47.88;;;24.77;;
23632;SDS011;11993;48.748;9.166;2022-12-18T06:09:45;53.72;;;24.83;;
23632;SDS011;11993;48.748;9.166;2022-12-18T06:12:11;49.72;;;23.38;;
23632;SDS011;11993;48.748;9.166;2022-12-18T06:14:36;53.85;;;25.33;;
23632;SDS011;11993;48.748;9.166;2022-12-18T06:17:02;53.15;;;24.05;;
23632;SDS011;11993;48.748;9.166;2022-12-18T06:19:28;58.33;;;28.25;;
23632;SDS011;11993;48.748;9.166;2022-12-18T06:21:54;48.22;;;24.15;;
23632;SDS011;11993;48.748;9.166;2022-12-18T06:24:19;51.92;;;24.40;;
23632;SDS011;11993;48.748;9.166;2022-12-18T06:26:45;56.35;;;25.92;;
23632;SDS011;11993;48.748;9.166;2022-12-18T06:29:10;49.88;;;24.85;;
23632;SDS011;11993;48.748;9.166;2022-12-18T06:31:36;52.03;;;26.60;;
23632;SDS011;11993;48.748;9.166;2022-12-18T06:34:02;47.35;;;24.05;;
23632;SDS011;11993;48.748;9.166;2022-12-18T06:36:29;50.55;;;25.70;;
23632;SDS011;11993;48.748;9.166;2022-12-18T06:38:56;55.38;;;26.40;;
23632;SDS011;11993;48.748;9.166;2022-12-18T06:41:21;49.30;;;25.30;;
23632;SDS011;11993;48.748;9.166;2022-12-18T06:43:47;52.45;;;26.27;;
23632;SDS011;11993;48.748;9.166;2022-12-18T06:46:13;49.60;;;24.35;;
23632;SDS011;11993;48.748;9.166;2022-12-18T06:48:39;51.17;;;24.77;;
23632;SDS011;11993;48.748;9.166;2022-12-18T06:51:05;51.17;;;24.00;;
23632;SDS011;11993;48.748;9.166;2022-12-18T06:53:31;48.42;;;23.52;;
23632;SDS011;11993;48.748;9.166;2022-12-18T06:56:04;49.53;;;24.60;;
23632;SDS011;11993;48.748;9.166;2022-12-18T06:58:31;44.90;;;22.77;;
23632;SDS011;11993;48.748;9.166;2022-12-18T07:01:00;49.38;;;23.42;;
23632;SDS011;11993;48.748;9.166;2022-12-18T07:03:31;43.92;;;23.80;;
23632;SDS011;11993;48.748;9.166;2022-12-18T07:05:57;48.45;;;23.42;;
23632;SDS011;11993;48.748;9.166;2022-12-18T07:08:22;59.00;;;29.33;;
23632;SDS011;11993;48.748;9.166;2022-12-18T07:10:48;47.67;;;24.90;;
23632;SDS011;11993;48.748;9.166;2022-12-18T07:13:16;48.80;;;25.15;;
23632;SDS011;11993;48.748;9.166;2022-12-18T07:15:42;49.20;;;25.08;;
23632;SDS011;11993;48.748;9.166;2022-12-18T07:18:08;46.67;;;24.35;;
23632;SDS011;11993;48.748;9.166;2022-12-18T07:20:34;46.17;;;24.27;;
23632;SDS011;11993;48.748;9.166;2022-12-18T07:23:01;47.38;;;23.58;;
23632;SDS011;11993;48.748;9.166;2022-12-18T07:25:27;50.70;;;25.17;;
23632;SDS011;11993;48.748;9.166;2022-12-18T07:27:53;53.33;;;24.92;;
23632;SDS011;11993;48.748;9.166;2022-12-18T07:30:19;48.58;;;24.55;;
23632;SDS011;11993;48.748;9.166;2022-12-18T07:32:45;46.42;;;23.63;;
23632;SDS011;11993;48.748;9.166;2022-12-18T07:35:10;48.78;;;24.42;;
23632;SDS011;11993;48.748;9.166;2022-12-18T07:37:37;46.03;;;23.30;;
23632;SDS011;11993;48.748;9.166;2022-12-18T07:40:02;46.97;;;24.10;;
23632;SDS011;11993;48.748;9.166;2022-12-18T07:42:28;47.63;;;23.52;;
23632;SDS011;11993;48.748;9.166;2022-12-18T07:44:57;50.97;;;25.88;;
23632;SDS011;11993;48.748;9.166;2022-12-18T07:47:26;47.42;;;24.60;;
23632;SDS011;11993;48.748;9.166;2022-12-18T07:49:54;47.28;;;23.13;;
23632;SDS011;11993;48.748;9.166;2022-12-18T07:52:20;45.15;;;22.98;;
23632;SDS011;11993;48.748;9.166;2022-12-18T07:54:46;47.30;;;23.83;;
23632;SDS011;11993;48.748;9.166;2022-12-18T07:57:14;46.90;;;23.70;;
23632;SDS011;11993;48.748;9.166;2022-12-18T07:59:40;49.88;;;24.02;;
23632;SDS011;11993;48.748;9.166;2022-12-18T08:02:06;42.88;;;22.55;;
23632;SDS011;11993;48.748;9.166;2022-12-18T08:04:31;42.65;;;22.70;;
23632;SDS011;11993;48.748;9.166;2022-12-18T08:06:57;41.78;;;22.15;;
23632;SDS011;11993;48.748;9.166;2022-12-18T08:09:22;46.97;;;23.98;;
23632;SDS011;11993;48.748;9.166;2022-12-18T08:11:48;39.75;;;21.40;;
23632;SDS011;11993;48.748;9.166;2022-12-18T08:14:14;40.33;;;21.42;;
23632;SDS011;11993;48.748;9.166;2022-12-18T08:16:39;40.83;;;22.67;;
23632;SDS011;11993;48.748;9.166;2022-12-18T08:19:05;42.42;;;22.25;;
23632;SDS011;11993;48.748;9.166;2022-12-18T08:21:30;40.20;;;21.38;;
23632;SDS011;11993;48.748;9.166;2022-12-18T08:23:57;50.45;;;26.13;;
23632;SDS011;11993;48.748;9.166;2022-12-18T08:26:25;40.03;;;23.38;;
23632;SDS011;11993;48.748;9.166;2022-12-18T08:28:53;43.65;;;23.42;;
23632;SDS011;11993;48.748;9.166;2022-12-18T08:31:20;41.92;;;21.42;;
23632;SDS011;11993;48.748;9.166;2022-12-18T08:33:48;43.97;;;23.58;;
23632;SDS011;11993;48.748;9.166;2022-12-18T08:36:14;44.83;;;24.05;;
23632;SDS011;11993;48.748;9.166;2022-12-18T08:38:40;43.45;;;22.52;;
23632;SDS011;11993;48.748;9.166;2022-12-18T08:41:06;40.65;;;22.75;;
23632;SDS011;11993;48.748;9.166;2022-12-18T08:43:34;43.08;;;20.70;;
23632;SDS011;11993;48.748;9.166;2022-12-18T08:46:18;42.50;;;23.35;;
23632;SDS011;11993;48.748;9.166;2022-12-18T08:48:44;38.08;;;22.30;;
23632;SDS011;11993;48.748;9.166;2022-12-18T08:51:10;40.17;;;22.63;;
23632;SDS011;11993;48.748;9.166;2022-12-18T08:53:36;37.92;;;22.52;;
23632;SDS011;11993;48.748;9.166;2022-12-18T08:56:03;39.72;;;22.33;;
23632;SDS011;11993;48.748;9.166;2022-12-18T08:58:57;42.00;;;23.05;;
23632;SDS011;11993;48.748;9.166;2022-12-18T09:01:23;45.97;;;23.80;;
23632;SDS011;11993;48.748;9.166;2022-12-18T09:03:49;42.22;;;22.73;;
23632;SDS011;11993;48.748;9.166;2022-12-18T09:06:19;45.30;;;24.25;;
23632;SDS011;11993;48.748;9.166;2022-12-18T09:08:45;45.92;;;25.63;;
23632;SDS011;11993;48.748;9.166;2022-12-18T09:11:12;45.05;;;24.55;;
23632;SDS011;11993;48.748;9.166;2022-12-18T09:13:48;44.45;;;23.67;;
23632;SDS011;11993;48.748;9.166;2022-12-18T09:16:14;43.83;;;24.13;;
23632;SDS011;11993;48.748;9.166;2022-12-18T09:18:40;46.17;;;24.52;;
23632;SDS011;11993;48.748;9.166;2022-12-18T09:21:09;40.22;;;23.35;;
23632;SDS011;11993;48.748;9.166;2022-12-18T09:23:35;45.72;;;23.35;;
23632;SDS011;11993;48.748;9.166;2022-12-18T09:26:01;44.38;;;23.30;;
23632;SDS011;11993;48.748;9.166;2022-12-18T09:28:27;44.78;;;24.23;;
23632;SDS011;11993;48.748;9.166;2022-12-18T09:30:52;49.38;;;24.77;;
23632;SDS011;11993;48.748;9.166;2022-12-18T09:33:18;54.33;;;25.38;;
23632;SDS011;11993;48.748;9.166;2022-12-18T09:35:43;45.58;;;25.45;;
23632;SDS011;11993;48.748;9.166;2022-12-18T09:38:14;44.72;;;26.00;;
23632;SDS011;11993;48.748;9.166;2022-12-18T09:40:42;45.00;;;24.92;;
23632;SDS011;11993;48.748;9.166;2022-12-18T09:43:20;44.25;;;25.38;;
23632;SDS011;11993;48.748;9.166;2022-12-18T09:45:54;43.03;;;24.35;;
23632;SDS011;11993;48.748;9.166;2022-12-18T09:48:37;51.83;;;25.25;;
23632;SDS011;11993;48.748;9.166;2022-12-18T09:51:10;48.83;;;25.35;;
23632;SDS011;11993;48.748;9.166;2022-12-18T09:53:46;47.25;;;25.30;;
23632;SDS011;11993;48.748;9.166;2022-12-18T09:56:17;41.78;;;24.40;;
23632;SDS011;11993;48.748;9.166;2022-12-18T09:58:50;44.88;;;26.45;;
23632;SDS011;11993;48.748;9.166;2022-12-18T10:01:26;43.90;;;26.30;;
23632;SDS011;11993;48.748;9.166;2022-12-18T10:03:52;49.58;;;25.67;;
23632;SDS011;11993;48.748;9.166;2022-12-18T10:09:09;55.17;;;29.75;;
23632;SDS011;11993;48.748;9.166;2022-12-18T10:17:25;46.97;;;26.52;;
23632;SDS011;11993;48.748;9.166;2022-12-18T10:20:16;45.03;;;26.00;;
23632;SDS011;11993;48.748;9.166;2022-12-18T10:23:02;43.63;;;25.55;;
23632;SDS011;11993;48.748;9.166;2022-12-18T10:25:38;41.25;;;24.55;;
23632;SDS011;11993;48.748;9.166;2022-12-18T10:28:25;41.30;;;24.35;;
23632;SDS011;11993;48.748;9.166;2022-12-18T10:30:51;44.15;;;24.63;;
23632;SDS011;11993;48.748;9.166;2022-12-18T10:33:19;44.22;;;25.45;;
23632;SDS011;11993;48.748;9.166;2022-12-18T10:35:47;45.75;;;25.50;;
23632;SDS011;11993;48.748;9.166;2022-12-18T10:48:35;47.28;;;25.55;;
23632;SDS011;11993;48.748;9.166;2022-12-18T10:53:51;46.47;;;27.30;;
23632;SDS011;11993;48.748;9.166;2022-12-18T10:56:26;55.15;;;29.52;;
23632;SDS011;11993;48.748;9.166;2022-12-18T10:59:00;46.88;;;26.42;;
23632;SDS011;11993;48.748;9.166;2022-12-18T11:04:31;48.15;;;26.13;;
23632;SDS011;11993;48.748;9.166;2022-12-18T11:07:07;46.22;;;27.45;;
23632;SDS011;11993;48.748;9.166;2022-12-18T11:09:37;43.42;;;26.08;;
23632;SDS011;11993;48.748;9.166;2022-12-18T11:14:50;47.13;;;26.40;;
23632;SDS011;11993;48.748;9.166;2022-12-18T11:17:21;50.60;;;28.27;;
23632;SDS011;11993;48.748;9.166;2022-12-18T11:20:02;48.80;;;27.05;;
23632;SDS011;11993;48.748;9.166;2022-12-18T11:22:57;40.30;;;24.88;;
23632;SDS011;11993;48.748;9.166;2022-12-18T11:25:27;47.42;;;25.75;;
23632;SDS011;11993;48.748;9.166;2022-12-18T11:27:58;50.63;;;27.02;;
23632;SDS011;11993;48.748;9.166;2022-12-18T11:30:30;40.10;;;24.85;;
23632;SDS011;11993;48.748;9.166;2022-12-18T11:35:39;42.58;;;26.20;;
23632;SDS011;11993;48.748;9.166;2022-12-18T11:43:42;44.47;;;26.20;;
23632;SDS011;11993;48.748;9.166;2022-12-18T11:46:17;45.92;;;25.60;;
23632;SDS011;11993;48.748;9.166;2022-12-18T11:48:50;45.40;;;25.98;;
23632;SDS011;11993;48.748;9.166;2022-12-18T11:51:28;58.05;;;33.47;;
23632;SDS011;11993;48.748;9.166;2022-12-18T11:54:00;48.92;;;26.58;;
23632;SDS011;11993;48.748;9.166;2022-12-18T11:56:32;42.83;;;25.85;;
23632;SDS011;11993;48.748;9.166;2022-12-18T11:59:07;41.80;;;24.50;;
23632;SDS011;11993;48.748;9.166;2022-12-18T12:02:02;40.17;;;23.35;;
23632;SDS011;11993;48.748;9.166;2022-12-18T12:05:11;43.22;;;25.63;;
23632;SDS011;11993;48.748;9.166;2022-12-18T12:07:48;44.30;;;25.65;;
23632;SDS011;11993;48.748;9.166;2022-12-18T12:13:02;44.35;;;25.50;;
23632;SDS011;11993;48.748;9.166;2022-12-18T12:21:10;42.05;;;22.70;;
23632;SDS011;11993;48.748;9.166;2022-12-18T12:23:42;43.40;;;24.30;;
23632;SDS011;11993;48.748;9.166;2022-12-18T12:26:37;41.92;;;23.13;;
23632;SDS011;11993;48.748;9.166;2022-12-18T12:29:17;44.38;;;24.65;;
23632;SDS011;11993;48.748;9.166;2022-12-18T12:32:28;42.17;;;22.88;;
23632;SDS011;11993;48.748;9.166;2022-12-18T12:38:14;42.05;;;25.10;;
23632;SDS011;11993;48.748;9.166;2022-12-18T12:40:46;40.30;;;22.77;;
23632;SDS011;11993;48.748;9.166;2022-12-18T12:43:55;42.00;;;21.67;;
23632;SDS011;11993;48.748;9.166;2022-12-18T12:46:23;43.50;;;24.70;;
23632;SDS011;11993;48.748;9.166;2022-12-18T12:48:58;46.65;;;24.27;;
23632;SDS011;11993;48.748;9.166;2022-12-18T12:51:32;40.58;;;23.50;;
23632;SDS011;11993;48.748;9.166;2022-12-18T12:56:52;43.63;;;22.42;;
23632;SDS011;11993;48.748;9.166;2022-12-18T13:05:34;41.40;;;23.33;;
23632;SDS011;11993;48.748;9.166;2022-12-18T13:08:24;41.17;;;21.98;;
23632;SDS011;11993;48.748;9.166;2022-12-18T13:10:54;42.72;;;23.75;;
23632;SDS011;11993;48.748;9.166;2022-12-18T13:13:53;43.45;;;24.67;;
23632;SDS011;11993;48.748;9.166;2022-12-18T13:16:21;52.85;;;28.92;;
23632;SDS011;11993;48.748;9.166;2022-12-18T13:18:49;45.08;;;24.70;;
23632;SDS011;11993;48.748;9.166;2022-12-18T13:21:20;43.78;;;24.33;;
23632;SDS011;11993;48.748;9.166;2022-12-18T13:23:50;42.42;;;23.55;;
23632;SDS011;11993;48.748;9.166;2022-12-18T13:31:10;48.30;;;27.00;;
23632;SDS011;11993;48.748;9.166;2022-12-18T13:33:37;39.00;;;22.83;;
23632;SDS011;11993;48.748;9.166;2022-12-18T13:36:14;40.95;;;23.10;;
23632;SDS011;11993;48.748;9.166;2022-12-18T13:39:08;40.35;;;23.13;;
23632;SDS011;11993;48.748;9.166;2022-12-18T13:41:34;42.13;;;23.33;;
23632;SDS011;11993;48.748;9.166;2022-12-18T13:47:00;43.15;;;24.67;;
23632;SDS011;11993;48.748;9.166;2022-12-18T13:49:36;45.92;;;25.15;;
23632;SDS011;11993;48.748;9.166;2022-12-18T13:52:19;43.80;;;25.00;;
23632;SDS011;11993;48.748;9.166;2022-12-18T13:54:50;45.78;;;25.63;;
23632;SDS011;11993;48.748;9.166;2022-12-18T13:57:31;46.65;;;25.70;;
23632;SDS011;11993;48.748;9.166;2022-12-18T13:59:58;42.42;;;23.58;;
23632;SDS011;11993;48.748;9.166;2022-12-18T14:02:44;44.53;;;25.77;;
23632;SDS011;11993;48.748;9.166;2022-12-18T14:05:21;44.70;;;23.65;;
23632;SDS011;11993;48.748;9.166;2022-12-18T14:08:04;46.83;;;24.98;;
23632;SDS011;11993;48.748;9.166;2022-12-18T14:10:33;49.53;;;26.40;;
23632;SDS011;11993;48.748;9.166;2022-12-18T14:13:02;47.55;;;25.40;;
23632;SDS011;11993;48.748;9.166;2022-12-18T14:15:31;48.28;;;24.60;;
23632;SDS011;11993;48.748;9.166;2022-12-18T14:18:09;52.65;;;27.90;;
23632;SDS011;11993;48.748;9.166;2022-12-18T14:20:52;51.65;;;26.23;;
23632;SDS011;11993;48.748;9.166;2022-12-18T14:23:32;48.60;;;26.10;;
23632;SDS011;11993;48.748;9.166;2022-12-18T14:25:58;48.58;;;26.13;;
23632;SDS011;11993;48.748;9.166;2022-12-18T14:28:25;47.85;;;26.50;;
23632;SDS011;11993;48.748;9.166;2022-12-18T14:30:54;43.88;;;25.65;;
23632;SDS011;11993;48.748;9.166;2022-12-18T14:33:21;47.35;;;26.27;;
23632;SDS011;11993;48.748;9.166;2022-12-18T14:35:53;48.17;;;25.33;;
23632;SDS011;11993;48.748;9.166;2022-12-18T14:43:31;56.35;;;28.33;;
23632;SDS011;11993;48.748;9.166;2022-12-18T14:45:58;56.78;;;28.80;;
23632;SDS011;11993;48.748;9.166;2022-12-18T14:51:25;52.40;;;28.10;;
23632;SDS011;11993;48.748;9.166;2022-12-18T14:53:55;52.45;;;27.85;;
23632;SDS011;11993;48.748;9.166;2022-12-18T14:58:48;50.30;;;24.70;;
23632;SDS011;11993;48.748;9.166;2022-12-18T15:01:26;53.20;;;26.73;;
23632;SDS011;11993;48.748;9.166;2022-12-18T15:03:58;68.90;;;34.15;;
23632;SDS011;11993;48.748;9.166;2022-12-18T15:06:29;57.45;;;29.23;;
23632;SDS011;11993;48.748;9.166;2022-12-18T15:09:00;61.28;;;28.90;;
23632;SDS011;11993;48.748;9.166;2022-12-18T15:11:47;57.42;;;28.92;;
23632;SDS011;11993;48.748;9.166;2022-12-18T15:16:57;68.80;;;32.05;;
23632;SDS011;11993;48.748;9.166;2022-12-18T15:19:32;57.25;;;29.98;;
23632;SDS011;11993;48.748;9.166;2022-12-18T15:22:02;60.70;;;30.55;;
23632;SDS011;11993;48.748;9.166;2022-12-18T15:24:30;67.65;;;32.80;;
23632;SDS011;11993;48.748;9.166;2022-12-18T15:26:57;57.65;;;30.10;;
23632;SDS011;11993;48.748;9.166;2022-12-18T15:29:23;66.63;;;31.83;;
23632;SDS011;11993;48.748;9.166;2022-12-18T15:32:03;56.85;;;27.83;;
23632;SDS011;11993;48.748;9.166;2022-12-18T15:34:30;59.85;;;29.75;;
23632;SDS011;11993;48.748;9.166;2022-12-18T15:36:58;61.72;;;31.30;;
23632;SDS011;11993;48.748;9.166;2022-12-18T15:39:24;67.75;;;33.47;;
23632;SDS011;11993;48.748;9.166;2022-12-18T15:41:50;68.80;;;34.03;;
23632;SDS011;11993;48.748;9.166;2022-12-18T15:44:34;61.85;;;30.67;;
23632;SDS011;11993;48.748;9.166;2022-12-18T15:47:00;59.00;;;28.77;;
23632;SDS011;11993;48.748;9.166;2022-12-18T15:49:25;64.60;;;30.92;;
23632;SDS011;11993;48.748;9.166;2022-12-18T15:51:52;58.97;;;30.00;;
23632;SDS011;11993;48.748;9.166;2022-12-18T15:54:21;58.63;;;29.98;;
23632;SDS011;11993;48.748;9.166;2022-12-18T15:57:10;61.40;;;31.63;;
23632;SDS011;11993;48.748;9.166;2022-12-18T15:59:49;66.40;;;28.40;;
23632;SDS011;11993;48.748;9.166;2022-12-18T16:02:17;54.72;;;28.33;;
23632;SDS011;11993;48.748;9.166;2022-12-18T16:04:44;62.85;;;30.83;;
23632;SDS011;11993;48.748;9.166;2022-12-18T16:07:10;58.78;;;29.27;;
23632;SDS011;11993;48.748;9.166;2022-12-18T16:09:36;59.58;;;30.55;;
23632;SDS011;11993;48.748;9.166;2022-12-18T16:12:03;66.20;;;31.67;;
23632;SDS011;11993;48.748;9.166;2022-12-18T16:14:30;86.45;;;37.83;;
23632;SDS011;11993;48.748;9.166;2022-12-18T16:16:59;77.75;;;37.38;;
23632;SDS011;11993;48.748;9.166;2022-12-18T16:19:27;64.10;;;31.27;;
23632;SDS011;11993;48.748;9.166;2022-12-18T16:21:54;61.85;;;31.95;;
23632;SDS011;11993;48.748;9.166;2022-12-18T16:24:21;62.08;;;31.23;;